createdAt,value
2022-11-30T00:01:12.428Z,21.43
2022-11-30T00:03:40.571Z,21.90
2022-11-30T00:06:10.087Z,21.77
2022-11-30T00:08:38.230Z,23.13
2022-11-30T00:11:10.299Z,23.17
2022-11-30T00:13:39.745Z,23.13
2022-11-30T00:16:08.388Z,23.23
2022-11-30T00:18:38.665Z,23.63
2022-11-30T00:21:09.747Z,22.37
2022-11-30T00:23:39.979Z,23.67
2022-11-30T00:26:10.418Z,25.33
2022-11-30T00:28:39.317Z,24.97
2022-11-30T00:31:09.075Z,24.93
2022-11-30T00:33:39.811Z,24.83
2022-11-30T00:36:09.669Z,25.87
2022-11-30T00:38:37.902Z,25.87
2022-11-30T00:41:06.487Z,28.63
2022-11-30T00:43:34.654Z,27.53
2022-11-30T00:46:02.969Z,26.90
2022-11-30T00:48:31.738Z,26.40
2022-11-30T00:51:01.520Z,27.53
2022-11-30T00:53:29.917Z,27.07
2022-11-30T00:55:58.205Z,27.33
2022-11-30T00:58:26.593Z,26.87
2022-11-30T01:00:54.877Z,27.20
2022-11-30T01:03:23.056Z,28.80
2022-11-30T01:05:51.739Z,29.87
2022-11-30T01:08:22.504Z,28.47
2022-11-30T01:10:53.905Z,28.10
2022-11-30T01:13:22.106Z,27.73
2022-11-30T01:15:50.427Z,29.60
2022-11-30T01:18:18.764Z,29.77
2022-11-30T01:20:47.007Z,27.07
2022-11-30T01:23:15.484Z,28.17
2022-11-30T01:25:55.124Z,28.83
2022-11-30T01:28:23.264Z,28.10
2022-11-30T01:30:58.193Z,27.80
2022-11-30T01:33:26.635Z,29.03
2022-11-30T01:36:03.379Z,29.60
2022-11-30T01:38:34.235Z,27.80
2022-11-30T01:41:04.603Z,27.63
2022-11-30T01:43:40.496Z,27.23
2022-11-30T01:46:33.319Z,27.37
2022-11-30T01:49:07.411Z,27.00
2022-11-30T01:51:41.495Z,26.90
2022-11-30T01:54:11.694Z,27.10
2022-11-30T01:56:45.920Z,29.17
2022-11-30T01:59:14.759Z,26.80
2022-11-30T02:01:42.991Z,26.93
2022-11-30T02:04:16.599Z,27.57
2022-11-30T02:06:45.256Z,27.20
2022-11-30T02:09:14.903Z,26.80
2022-11-30T02:11:44.806Z,27.80
2022-11-30T02:14:25.795Z,25.53
2022-11-30T02:17:03.177Z,26.57
2022-11-30T02:20:04.295Z,26.70
2022-11-30T02:22:51.030Z,26.47
2022-11-30T02:25:27.933Z,27.47
2022-11-30T02:28:14.653Z,28.77
2022-11-30T02:30:49.217Z,27.53
2022-11-30T02:33:20.805Z,27.53
2022-11-30T02:35:55.355Z,25.80
2022-11-30T02:38:25.851Z,25.37
2022-11-30T02:40:54.226Z,24.77
2022-11-30T02:43:24.714Z,25.33
2022-11-30T02:46:00.843Z,23.50
2022-11-30T02:48:33.640Z,24.00
2022-11-30T02:51:05.807Z,24.40
2022-11-30T02:53:34.207Z,24.47
2022-11-30T02:56:02.520Z,21.97
2022-11-30T02:58:30.817Z,22.67
2022-11-30T03:01:00.392Z,21.07
2022-11-30T03:03:28.797Z,22.43
2022-11-30T03:05:56.971Z,23.00
2022-11-30T03:08:25.317Z,22.03
2022-11-30T03:10:53.556Z,21.40
2022-11-30T03:13:21.725Z,22.03
2022-11-30T03:15:50.120Z,21.50
2022-11-30T03:18:19.716Z,21.97
2022-11-30T03:20:47.973Z,21.17
2022-11-30T03:23:16.035Z,21.43
2022-11-30T03:25:44.112Z,21.07
2022-11-30T03:28:12.209Z,20.20
2022-11-30T03:30:40.316Z,20.77
2022-11-30T03:33:08.436Z,20.10
2022-11-30T03:35:38.155Z,19.13
2022-11-30T03:38:06.603Z,18.67
2022-11-30T03:40:35.228Z,18.00
2022-11-30T03:43:03.654Z,17.40
2022-11-30T03:45:31.848Z,16.07
2022-11-30T03:48:00.171Z,15.80
2022-11-30T03:50:28.790Z,15.73
2022-11-30T03:52:58.287Z,15.57
2022-11-30T03:55:26.392Z,17.10
2022-11-30T03:57:54.600Z,16.20
2022-11-30T04:00:23.051Z,15.27
2022-11-30T04:02:51.541Z,14.10
2022-11-30T04:05:22.397Z,14.37
2022-11-30T04:07:50.567Z,14.57
2022-11-30T04:10:20.388Z,14.13
2022-11-30T04:12:48.810Z,12.57
2022-11-30T04:15:16.981Z,11.17
2022-11-30T04:17:45.092Z,12.50
2022-11-30T04:20:13.985Z,11.83
2022-11-30T04:22:42.229Z,11.43
2022-11-30T04:25:11.068Z,11.83
2022-11-30T04:27:40.638Z,10.97
2022-11-30T04:30:10.203Z,10.43
2022-11-30T04:32:38.486Z,11.40
2022-11-30T04:35:07.725Z,10.50
2022-11-30T04:37:36.102Z,11.97
2022-11-30T04:40:04.723Z,10.63
2022-11-30T04:42:32.903Z,9.53
2022-11-30T04:45:02.380Z,10.43
2022-11-30T04:47:30.526Z,11.10
2022-11-30T04:49:58.716Z,11.17
2022-11-30T04:52:26.960Z,10.90
2022-11-30T04:54:57.090Z,9.70
2022-11-30T04:57:25.947Z,10.03
2022-11-30T04:59:54.190Z,10.00
2022-11-30T05:02:23.828Z,10.80
2022-11-30T05:04:52.362Z,10.40
2022-11-30T05:07:20.820Z,10.90
2022-11-30T05:09:49.091Z,10.00
2022-11-30T05:12:17.318Z,10.30
2022-11-30T05:14:46.029Z,10.33
2022-11-30T05:17:14.544Z,11.63
2022-11-30T05:19:44.383Z,10.63
2022-11-30T05:22:12.717Z,11.33
2022-11-30T05:24:41.114Z,12.33
2022-11-30T05:27:14.347Z,12.27
2022-11-30T05:29:44.741Z,10.20
2022-11-30T05:32:12.977Z,10.40
2022-11-30T05:34:50.165Z,10.20
2022-11-30T05:37:21.283Z,9.77
2022-11-30T05:39:49.620Z,9.90
2022-11-30T05:42:19.007Z,9.90
2022-11-30T05:44:48.206Z,10.87
2022-11-30T05:47:16.900Z,9.63
2022-11-30T05:49:45.269Z,10.27
2022-11-30T05:52:13.834Z,9.43
2022-11-30T05:54:43.381Z,9.33
2022-11-30T05:57:11.573Z,10.03
2022-11-30T05:59:39.679Z,9.23
2022-11-30T06:02:07.958Z,9.40
2022-11-30T06:04:36.474Z,8.53
2022-11-30T06:07:04.640Z,9.00
2022-11-30T06:09:32.694Z,8.60
2022-11-30T06:12:02.140Z,8.00
2022-11-30T06:14:30.181Z,7.50
2022-11-30T06:16:58.282Z,8.33
2022-11-30T06:19:26.357Z,7.67
2022-11-30T06:21:54.461Z,7.20
2022-11-30T06:24:22.515Z,7.73
2022-11-30T06:26:50.570Z,8.27
2022-11-30T06:29:20.079Z,8.63
2022-11-30T06:31:48.131Z,8.33
2022-11-30T06:34:16.377Z,8.87
2022-11-30T06:36:44.419Z,8.67
2022-11-30T06:39:13.467Z,9.07
2022-11-30T06:41:41.555Z,9.33
2022-11-30T06:44:09.750Z,9.07
2022-11-30T06:46:39.159Z,8.67
2022-11-30T06:49:07.702Z,8.33
2022-11-30T06:51:37.294Z,8.53
2022-11-30T06:54:05.715Z,9.37
2022-11-30T06:56:33.773Z,9.03
2022-11-30T06:59:01.835Z,9.40
2022-11-30T07:01:29.917Z,9.43
2022-11-30T07:03:59.492Z,10.40
2022-11-30T07:06:27.618Z,8.57
2022-11-30T07:08:55.709Z,8.50
2022-11-30T07:11:23.763Z,8.90
2022-11-30T07:13:51.856Z,8.87
2022-11-30T07:16:19.991Z,8.77
2022-11-30T07:18:48.141Z,7.93
2022-11-30T07:21:17.577Z,7.93
2022-11-30T07:24:03.007Z,8.10
2022-11-30T07:26:31.076Z,8.70
2022-11-30T07:28:59.172Z,7.77
2022-11-30T07:31:28.797Z,8.17
2022-11-30T07:33:57.812Z,7.60
2022-11-30T07:36:29.661Z,7.83
2022-11-30T07:38:57.829Z,11.30
2022-11-30T07:41:26.061Z,9.23
2022-11-30T07:43:54.248Z,9.60
2022-11-30T07:46:22.360Z,11.17
2022-11-30T07:48:50.876Z,9.40
2022-11-30T07:51:21.519Z,14.73
2022-11-30T07:53:51.527Z,8.23
2022-11-30T07:56:21.220Z,7.57
2022-11-30T07:58:50.619Z,8.10
2022-11-30T08:01:21.605Z,8.00
2022-11-30T08:03:50.328Z,8.90
2022-11-30T08:06:20.930Z,8.67
2022-11-30T08:08:52.568Z,8.80
2022-11-30T08:11:23.059Z,11.77
2022-11-30T08:13:51.311Z,10.33
2022-11-30T08:16:20.841Z,17.27
2022-11-30T08:18:49.093Z,12.03
2022-11-30T08:21:19.721Z,10.27
2022-11-30T08:23:51.531Z,11.70
2022-11-30T08:26:21.123Z,15.77
2022-11-30T08:28:50.847Z,11.73
2022-11-30T08:31:21.973Z,17.30
2022-11-30T08:33:51.008Z,15.43
2022-11-30T08:36:21.064Z,16.80
2022-11-30T08:38:50.537Z,13.67
2022-11-30T08:41:20.300Z,27.87
2022-11-30T08:43:49.615Z,14.87
2022-11-30T08:49:24.106Z,13.30
2022-11-30T08:54:46.457Z,11.80
2022-11-30T08:57:15.235Z,13.23
2022-11-30T08:59:43.285Z,11.53
2022-11-30T09:02:12.285Z,14.27
2022-11-30T09:04:40.464Z,13.77
2022-11-30T09:07:09.688Z,13.43
2022-11-30T09:09:38.131Z,19.20
2022-11-30T09:12:08.779Z,14.60
2022-11-30T09:14:36.862Z,25.70
2022-11-30T09:17:05.462Z,21.40
2022-11-30T09:19:33.524Z,21.03
2022-11-30T09:22:01.633Z,13.20
2022-11-30T09:24:29.722Z,16.30
2022-11-30T09:26:58.023Z,19.60
2022-11-30T09:29:27.589Z,18.00
2022-11-30T09:31:55.668Z,12.93
2022-11-30T09:34:23.746Z,17.53
2022-11-30T09:36:51.876Z,14.43
2022-11-30T09:39:20.277Z,14.67
2022-11-30T09:42:25.798Z,17.50
2022-11-30T09:45:03.200Z,16.03
2022-11-30T09:47:54.627Z,14.57
2022-11-30T09:50:26.848Z,15.47
2022-11-30T09:52:58.183Z,15.47
2022-11-30T09:55:30.577Z,15.53
2022-11-30T09:58:02.423Z,16.40
2022-11-30T10:00:32.318Z,14.87
2022-11-30T10:03:04.532Z,13.93
2022-11-30T10:05:46.499Z,14.50
2022-11-30T10:08:35.975Z,13.67
2022-11-30T10:11:32.883Z,12.87
2022-11-30T10:14:15.793Z,13.40
2022-11-30T10:16:52.155Z,13.40
2022-11-30T10:19:33.523Z,13.30
2022-11-30T10:22:12.125Z,13.83
2022-11-30T10:24:57.686Z,12.27
2022-11-30T10:27:39.553Z,13.67
2022-11-30T10:30:15.358Z,12.37
2022-11-30T10:32:48.790Z,12.77
2022-11-30T10:35:23.027Z,13.70
2022-11-30T10:37:53.058Z,13.37
2022-11-30T10:40:27.612Z,13.90
2022-11-30T10:43:07.016Z,11.60
2022-11-30T10:45:38.572Z,14.07
2022-11-30T10:48:15.905Z,11.93
2022-11-30T10:50:44.161Z,13.40
2022-11-30T10:53:13.270Z,12.23
2022-11-30T10:55:44.035Z,12.07
2022-11-30T10:58:22.346Z,12.17
2022-11-30T11:00:58.515Z,11.90
2022-11-30T11:03:28.264Z,12.37
2022-11-30T11:06:16.076Z,12.70
2022-11-30T11:08:46.938Z,13.80
2022-11-30T11:11:34.522Z,13.43
2022-11-30T11:14:19.246Z,14.00
2022-11-30T11:16:58.744Z,13.87
2022-11-30T11:19:39.536Z,13.47
2022-11-30T11:22:17.120Z,12.60
2022-11-30T11:24:46.250Z,13.43
2022-11-30T11:27:25.540Z,12.30
2022-11-30T11:30:03.505Z,11.63
2022-11-30T11:32:32.373Z,12.33
2022-11-30T11:35:02.204Z,11.37
2022-11-30T11:37:33.732Z,10.70
2022-11-30T11:40:05.867Z,12.07
2022-11-30T11:42:38.450Z,10.50
2022-11-30T11:45:16.036Z,11.30
2022-11-30T11:47:46.374Z,10.73
2022-11-30T11:51:04.462Z,11.53
2022-11-30T11:53:26.786Z,11.27
2022-11-30T11:56:00.324Z,10.67
2022-11-30T11:58:39.486Z,11.23
2022-11-30T12:01:38.563Z,9.27
2022-11-30T12:04:12.345Z,8.67
2022-11-30T12:06:43.452Z,8.60
2022-11-30T12:09:16.315Z,8.40
2022-11-30T12:11:46.984Z,8.70
2022-11-30T12:14:17.363Z,9.27
2022-11-30T12:17:00.961Z,9.07
2022-11-30T12:19:36.397Z,9.10
2022-11-30T12:22:16.315Z,9.17
2022-11-30T12:25:08.005Z,9.53
2022-11-30T12:27:49.104Z,10.23
2022-11-30T12:30:24.691Z,9.33
2022-11-30T12:33:12.511Z,10.40
2022-11-30T12:35:57.042Z,10.90
2022-11-30T12:38:37.677Z,10.67
2022-11-30T12:41:20.305Z,9.63
2022-11-30T12:43:55.637Z,9.50
2022-11-30T12:46:30.534Z,9.73
2022-11-30T12:49:21.232Z,8.20
2022-11-30T12:51:55.319Z,8.43
2022-11-30T12:54:32.069Z,8.07
2022-11-30T12:57:12.056Z,7.93
2022-11-30T12:59:47.822Z,8.53
2022-11-30T13:02:41.833Z,8.67
2022-11-30T13:05:13.057Z,9.50
2022-11-30T13:07:46.451Z,8.57
2022-11-30T13:10:26.644Z,9.47
2022-11-30T13:12:57.184Z,106.57
2022-11-30T13:15:28.764Z,18.20
2022-11-30T13:17:57.101Z,9.87
2022-11-30T13:20:36.140Z,8.30
2022-11-30T13:23:10.135Z,9.00
2022-11-30T13:28:53.853Z,8.93
2022-11-30T13:31:25.561Z,8.90
2022-11-30T13:33:59.753Z,9.47
2022-11-30T13:36:39.630Z,9.70
2022-11-30T13:39:29.773Z,9.27
2022-11-30T13:42:36.289Z,8.77
2022-11-30T13:45:32.521Z,7.60
2022-11-30T13:48:16.716Z,8.13
2022-11-30T13:50:48.948Z,8.20
2022-11-30T13:53:23.278Z,8.93
2022-11-30T13:56:00.228Z,9.47
2022-11-30T13:58:30.060Z,9.13
2022-11-30T14:01:20.731Z,8.73
2022-11-30T14:04:24.350Z,8.03
2022-11-30T14:06:55.406Z,9.30
2022-11-30T14:10:09.229Z,10.00
2022-11-30T14:12:49.314Z,9.50
2022-11-30T14:15:53.102Z,10.57
2022-11-30T14:18:29.027Z,10.97
2022-11-30T14:21:01.954Z,10.37
2022-11-30T14:23:33.530Z,0.60
2022-11-30T14:26:10.453Z,0.60
2022-11-30T14:28:43.994Z,0.60
2022-11-30T14:31:17.785Z,0.70
2022-11-30T14:33:51.530Z,9.83
2022-11-30T14:36:21.969Z,11.90
2022-11-30T14:38:50.148Z,12.40
2022-11-30T14:41:23.220Z,14.87
2022-11-30T14:44:02.193Z,13.13
2022-11-30T14:46:31.370Z,12.83
2022-11-30T14:49:15.707Z,11.77
2022-11-30T14:51:46.596Z,12.93
2022-11-30T14:54:40.512Z,12.57
2022-11-30T14:57:17.161Z,12.77
2022-11-30T14:59:50.106Z,12.97
2022-11-30T15:02:27.726Z,13.90
2022-11-30T15:04:59.015Z,13.90
2022-11-30T15:07:29.740Z,15.03
2022-11-30T15:10:04.762Z,14.63
2022-11-30T15:12:34.342Z,14.93
2022-11-30T15:15:04.163Z,14.70
2022-11-30T15:17:33.032Z,14.80
2022-11-30T15:20:03.898Z,13.10
2022-11-30T15:22:35.552Z,14.27
2022-11-30T15:25:03.773Z,13.93
2022-11-30T15:27:32.088Z,13.20
2022-11-30T15:30:01.972Z,14.53
2022-11-30T15:32:30.315Z,13.47
2022-11-30T15:35:00.963Z,14.13
2022-11-30T15:37:33.347Z,13.60
2022-11-30T15:40:03.337Z,13.63
2022-11-30T15:42:39.853Z,14.00
2022-11-30T15:45:20.637Z,13.43
2022-11-30T15:47:49.094Z,12.20
2022-11-30T15:50:41.892Z,12.20
2022-11-30T15:53:29.635Z,12.33
2022-11-30T15:55:59.745Z,11.67
2022-11-30T15:58:34.100Z,11.53
2022-11-30T16:01:09.186Z,10.10
2022-11-30T16:04:07.983Z,11.57
2022-11-30T16:06:39.427Z,11.23
2022-11-30T16:09:20.929Z,11.30
2022-11-30T16:11:51.414Z,11.23
2022-11-30T16:14:19.530Z,10.90
2022-11-30T16:16:48.100Z,12.67
2022-11-30T16:19:16.340Z,10.73
2022-11-30T16:21:50.087Z,10.73
2022-11-30T16:24:20.398Z,10.93
2022-11-30T16:26:51.610Z,12.63
2022-11-30T16:29:20.267Z,15.73
2022-11-30T16:31:48.518Z,17.23
2022-11-30T16:34:16.620Z,16.83
2022-11-30T16:36:44.765Z,17.53
2022-11-30T16:39:13.796Z,13.70
2022-11-30T16:41:45.286Z,12.87
2022-11-30T16:44:15.399Z,12.70
2022-11-30T16:46:43.734Z,12.60
2022-11-30T16:49:11.819Z,13.00
2022-11-30T16:51:41.927Z,14.10
2022-11-30T16:54:13.391Z,13.30
2022-11-30T16:56:42.999Z,10.77
2022-11-30T16:59:16.364Z,10.93
2022-11-30T17:01:48.082Z,0.70
2022-11-30T17:04:20.116Z,0.77
2022-11-30T17:06:50.590Z,0.57
2022-11-30T17:09:20.579Z,0.70
2022-11-30T17:11:52.046Z,0.70
2022-11-30T17:14:20.981Z,0.70
2022-11-30T17:16:49.197Z,0.67
2022-11-30T17:19:17.274Z,9.20
2022-11-30T17:21:45.911Z,13.23
2022-11-30T17:24:14.025Z,13.27
2022-11-30T17:26:42.382Z,13.20
2022-11-30T17:29:11.896Z,13.63
2022-11-30T17:31:40.065Z,14.80
2022-11-30T17:34:08.766Z,15.90
2022-11-30T17:36:36.929Z,14.77
2022-11-30T17:39:07.708Z,14.97
2022-11-30T17:41:35.904Z,15.13
2022-11-30T17:44:04.061Z,14.63
2022-11-30T17:46:33.552Z,12.70
2022-11-30T17:49:01.816Z,11.40
2022-11-30T17:51:30.811Z,13.20
2022-11-30T17:53:59.374Z,13.43
2022-11-30T17:56:27.697Z,12.77
2022-11-30T17:58:55.749Z,28.83
2022-11-30T18:01:26.498Z,28.60
2022-11-30T18:03:58.133Z,13.70
2022-11-30T18:06:26.256Z,9.90
2022-11-30T18:08:54.371Z,8.03
2022-11-30T18:11:24.778Z,7.90
2022-11-30T18:13:54.853Z,6.90
2022-11-30T18:16:24.930Z,8.00
2022-11-30T18:18:53.477Z,10.77
2022-11-30T18:21:24.029Z,9.20
2022-11-30T18:23:52.528Z,8.50
2022-11-30T18:26:22.682Z,9.33
2022-11-30T18:28:53.472Z,9.20
2022-11-30T18:31:21.874Z,10.13
2022-11-30T18:33:50.195Z,9.60
2022-11-30T18:36:18.249Z,8.30
2022-11-30T18:38:47.765Z,8.30
2022-11-30T18:41:15.791Z,9.30
2022-11-30T18:43:43.907Z,8.83
2022-11-30T18:46:13.801Z,8.37
2022-11-30T18:48:42.836Z,9.03
2022-11-30T18:51:12.675Z,9.43
2022-11-30T18:53:40.808Z,9.43
2022-11-30T18:56:13.049Z,8.80
2022-11-30T18:58:41.276Z,9.53
2022-11-30T19:01:10.826Z,8.33
2022-11-30T19:03:39.242Z,8.83
2022-11-30T19:06:09.298Z,8.17
2022-11-30T19:08:37.788Z,9.67
2022-11-30T19:11:07.805Z,9.67
2022-11-30T19:13:37.800Z,9.43
2022-11-30T19:16:09.063Z,8.77
2022-11-30T19:18:37.654Z,7.43
2022-11-30T19:21:09.244Z,6.67
2022-11-30T19:23:37.802Z,6.90
2022-11-30T19:26:06.759Z,7.97
2022-11-30T19:28:38.040Z,9.63
2022-11-30T19:31:09.298Z,7.17
2022-11-30T19:33:38.100Z,6.93
2022-11-30T19:36:08.545Z,7.37
2022-11-30T19:38:36.582Z,6.67
2022-11-30T19:41:07.079Z,7.20
2022-11-30T19:43:35.245Z,6.27
2022-11-30T19:46:09.311Z,4.73
2022-11-30T19:48:37.744Z,6.50
2022-11-30T19:51:14.794Z,5.97
2022-11-30T19:53:46.303Z,5.60
2022-11-30T19:56:16.133Z,6.33
2022-11-30T19:58:46.037Z,6.83
2022-11-30T20:01:15.966Z,8.20
2022-11-30T20:03:44.669Z,8.77
2022-11-30T20:06:13.059Z,9.40
2022-11-30T20:08:41.424Z,8.30
2022-11-30T20:11:10.975Z,9.27
2022-11-30T20:13:39.477Z,9.73
2022-11-30T20:16:09.111Z,7.93
2022-11-30T20:18:44.190Z,7.87
2022-11-30T20:21:15.540Z,8.23
2022-11-30T20:23:45.017Z,8.53
2022-11-30T20:26:14.706Z,7.70
2022-11-30T20:28:42.927Z,8.17
2022-11-30T20:31:12.165Z,7.83
2022-11-30T20:33:42.210Z,8.53
2022-11-30T20:36:11.811Z,8.40
2022-11-30T20:38:40.518Z,9.27
2022-11-30T20:41:12.476Z,9.10
2022-11-30T20:43:40.585Z,9.47
2022-11-30T20:46:18.174Z,8.03
2022-11-30T20:48:48.339Z,9.60
2022-11-30T20:51:33.863Z,7.70
2022-11-30T20:54:03.602Z,8.87
2022-11-30T20:56:31.843Z,7.57
2022-11-30T20:59:03.020Z,7.87
2022-11-30T21:01:31.396Z,7.93
2022-11-30T21:04:01.305Z,7.63
2022-11-30T21:06:29.775Z,10.07
2022-11-30T21:08:58.154Z,10.40
2022-11-30T21:11:27.688Z,9.90
2022-11-30T21:13:56.103Z,10.00
2022-11-30T21:16:28.674Z,10.90
2022-11-30T21:18:58.496Z,11.10
2022-11-30T21:21:30.897Z,10.00
2022-11-30T21:24:00.632Z,10.73
2022-11-30T21:26:30.334Z,11.03
2022-11-30T21:29:01.484Z,9.60
2022-11-30T21:31:30.074Z,9.40
2022-11-30T21:33:58.465Z,9.80
2022-11-30T21:36:28.131Z,9.83
2022-11-30T21:39:04.392Z,10.23
2022-11-30T21:41:33.836Z,11.63
2022-11-30T21:44:01.914Z,11.77
2022-11-30T21:46:30.089Z,11.13
2022-11-30T21:48:58.510Z,10.70
2022-11-30T21:51:29.355Z,11.77
2022-11-30T21:53:58.945Z,11.37
2022-11-30T21:56:28.642Z,11.50
2022-11-30T21:58:57.561Z,10.87
2022-11-30T22:01:28.464Z,11.43
2022-11-30T22:03:57.142Z,10.87
2022-11-30T22:06:28.700Z,10.67
2022-11-30T22:08:57.698Z,11.53
2022-11-30T22:11:25.770Z,11.03
2022-11-30T22:13:54.969Z,11.30
2022-11-30T22:16:28.826Z,9.97
2022-11-30T22:19:02.568Z,10.47
2022-11-30T22:21:32.832Z,10.60
2022-11-30T22:24:03.331Z,10.97
2022-11-30T22:26:33.442Z,12.17
2022-11-30T22:29:02.992Z,11.87
2022-11-30T22:31:32.817Z,11.70
2022-11-30T22:34:01.026Z,11.80
2022-11-30T22:36:32.403Z,11.33
2022-11-30T22:39:02.712Z,11.73
2022-11-30T22:41:31.161Z,10.60
2022-11-30T22:44:00.299Z,11.80
2022-11-30T22:46:30.287Z,10.77
2022-11-30T22:49:01.090Z,12.67
2022-11-30T22:51:33.016Z,11.60
2022-11-30T22:54:02.263Z,11.80
2022-11-30T22:56:32.088Z,11.73
2022-11-30T22:59:01.566Z,11.67
2022-11-30T23:01:32.122Z,11.10
2022-11-30T23:04:04.056Z,11.50
2022-11-30T23:06:34.882Z,13.50
2022-11-30T23:09:03.506Z,15.23
2022-11-30T23:11:32.108Z,10.60
2022-11-30T23:14:01.636Z,14.50
2022-11-30T23:16:29.942Z,13.00
2022-11-30T23:18:58.636Z,14.70
2022-11-30T23:21:30.116Z,17.87
2022-11-30T23:24:02.716Z,14.30
2022-11-30T23:26:32.851Z,13.70
2022-11-30T23:29:02.575Z,12.17
2022-11-30T23:31:35.202Z,12.67
2022-11-30T23:34:05.992Z,13.47
2022-11-30T23:36:34.762Z,13.23
2022-11-30T23:39:06.540Z,12.40
2022-11-30T23:41:35.014Z,12.27
2022-11-30T23:44:03.709Z,16.30
2022-11-30T23:46:32.055Z,11.87
2022-11-30T23:49:00.485Z,11.90
2022-11-30T23:51:28.966Z,11.77
2022-11-30T23:53:57.472Z,13.50
2022-11-30T23:56:27.384Z,12.57
2022-11-30T23:58:56.180Z,12.50
